createdAt,value
2022-11-20T00:01:26.851Z,97090.66
2022-11-20T00:04:13.834Z,97092.72
2022-11-20T00:07:01.250Z,97092.88
2022-11-20T00:09:48.219Z,97103.22
2022-11-20T00:12:35.427Z,97102.81
2022-11-20T00:15:22.387Z,97105.00
2022-11-20T00:18:09.529Z,97100.56
2022-11-20T00:21:05.857Z,97101.00
2022-11-20T00:23:55.524Z,97103.91
2022-11-20T00:26:42.463Z,97118.09
2022-11-20T00:29:29.588Z,97116.75
2022-11-20T00:32:16.536Z,97117.59
2022-11-20T00:35:03.610Z,97127.06
2022-11-20T00:37:50.594Z,97132.56
2022-11-20T00:40:37.742Z,97124.22
2022-11-20T00:43:25.230Z,97115.84
2022-11-20T00:46:16.501Z,97118.31
2022-11-20T00:49:03.697Z,97123.59
2022-11-20T00:51:50.733Z,97114.56
2022-11-20T00:54:37.644Z,97114.34
2022-11-20T00:57:24.564Z,97106.31
2022-11-20T01:00:11.786Z,97113.94
2022-11-20T01:02:58.903Z,97109.88
2022-11-20T01:05:45.893Z,97109.06
2022-11-20T01:08:34.895Z,97111.06
2022-11-20T01:11:24.987Z,97109.00
2022-11-20T01:14:15.553Z,97103.78
2022-11-20T01:17:02.486Z,97101.22
2022-11-20T01:19:51.492Z,97112.75
2022-11-20T01:22:38.489Z,97117.22
2022-11-20T01:25:25.662Z,97119.72
2022-11-20T01:28:12.631Z,97121.88
2022-11-20T01:30:59.831Z,97117.81
2022-11-20T01:33:48.122Z,97121.19
2022-11-20T01:36:37.539Z,97119.72
2022-11-20T01:39:26.601Z,97122.44
2022-11-20T01:42:32.013Z,97117.38
2022-11-20T01:46:04.134Z,97110.25
2022-11-20T01:48:58.133Z,97108.22
2022-11-20T01:51:58.223Z,97100.50
2022-11-20T01:54:57.233Z,97103.69
2022-11-20T01:57:45.428Z,97100.56
2022-11-20T02:00:32.610Z,97107.72
2022-11-20T02:03:21.266Z,97100.81
2022-11-20T02:06:43.725Z,97094.56
2022-11-20T02:09:30.638Z,97100.00
2022-11-20T02:12:36.488Z,97094.16
2022-11-20T02:15:27.590Z,97103.19
2022-11-20T02:18:19.769Z,97099.31
2022-11-20T02:21:20.391Z,97104.25
2022-11-20T02:24:18.986Z,97110.81
2022-11-20T02:27:10.272Z,97111.47
2022-11-20T02:30:11.887Z,97110.84
2022-11-20T02:32:59.609Z,97099.72
2022-11-20T02:35:47.976Z,97099.59
2022-11-20T02:38:35.299Z,97099.16
2022-11-20T02:41:23.127Z,97094.97
2022-11-20T02:44:10.134Z,97097.19
2022-11-20T02:46:59.614Z,97091.91
2022-11-20T02:49:46.762Z,97094.88
2022-11-20T02:52:33.722Z,97104.84
2022-11-20T02:55:20.729Z,97097.78
2022-11-20T02:58:07.864Z,97094.91
2022-11-20T03:00:55.034Z,97091.44
2022-11-20T03:03:42.133Z,97096.31
2022-11-20T03:06:29.362Z,97104.69
2022-11-20T03:09:16.317Z,97100.34
2022-11-20T03:12:03.866Z,97114.69
2022-11-20T03:14:53.277Z,97106.84
2022-11-20T03:17:40.504Z,97106.34
2022-11-20T03:20:27.629Z,97107.34
2022-11-20T03:23:14.758Z,97112.22
2022-11-20T03:26:12.617Z,97139.25
2022-11-20T03:29:02.148Z,97132.53
2022-11-20T03:31:49.255Z,97126.72
2022-11-20T03:34:36.412Z,97120.69
2022-11-20T03:37:23.424Z,97124.63
2022-11-20T03:40:10.860Z,97129.22
2022-11-20T03:42:57.916Z,97125.81
2022-11-20T03:45:45.052Z,97125.41
2022-11-20T03:48:32.269Z,97131.94
2022-11-20T03:51:30.679Z,97123.03
2022-11-20T03:54:17.796Z,97126.63
2022-11-20T03:57:04.971Z,97130.94
2022-11-20T03:59:51.882Z,97126.50
2022-11-20T04:02:38.819Z,97134.97
2022-11-20T04:05:26.113Z,97122.53
2022-11-20T04:08:13.097Z,97131.47
2022-11-20T04:11:23.287Z,97121.66
2022-11-20T04:14:15.624Z,97122.84
2022-11-20T04:17:02.747Z,97119.13
2022-11-20T04:19:49.877Z,97115.28
2022-11-20T04:22:36.808Z,97120.94
2022-11-20T04:25:23.766Z,97129.88
2022-11-20T04:28:10.871Z,97124.31
2022-11-20T04:31:31.410Z,97124.66
2022-11-20T04:34:18.336Z,97119.25
2022-11-20T04:37:05.261Z,97117.13
2022-11-20T04:39:52.179Z,97119.53
2022-11-20T04:42:39.357Z,97104.13
2022-11-20T04:45:26.256Z,97112.63
2022-11-20T04:48:13.249Z,97109.16
2022-11-20T04:51:04.987Z,97098.97
2022-11-20T04:53:52.212Z,97094.25
2022-11-20T04:56:39.123Z,97097.16
2022-11-20T04:59:26.181Z,97089.59
2022-11-20T05:02:13.670Z,97092.00
2022-11-20T05:05:00.808Z,97088.03
2022-11-20T05:07:47.682Z,97095.84
2022-11-20T05:10:34.643Z,97088.81
2022-11-20T05:13:21.703Z,97086.91
2022-11-20T05:16:11.437Z,97097.78
2022-11-20T05:18:58.450Z,97093.84
2022-11-20T05:21:45.400Z,97091.81
2022-11-20T05:24:32.513Z,97098.84
2022-11-20T05:27:19.663Z,97083.13
2022-11-20T05:30:07.802Z,97088.94
2022-11-20T05:32:54.888Z,97089.13
2022-11-20T05:35:42.155Z,97091.06
2022-11-20T05:38:29.345Z,97087.75
2022-11-20T05:41:19.349Z,97095.69
2022-11-20T05:44:06.330Z,97102.97
2022-11-20T05:46:53.460Z,97102.47
2022-11-20T05:49:40.584Z,97109.66
2022-11-20T05:52:30.676Z,97106.19
2022-11-20T05:55:17.698Z,97107.13
2022-11-20T05:58:04.797Z,97115.13
2022-11-20T06:00:52.065Z,97107.22
2022-11-20T06:03:40.225Z,97106.69
2022-11-20T06:06:27.291Z,97118.56
2022-11-20T06:09:14.398Z,97123.66
2022-11-20T06:12:01.708Z,97122.78
2022-11-20T06:14:48.564Z,97117.03
2022-11-20T06:17:35.497Z,97120.25
2022-11-20T06:20:23.120Z,97125.19
2022-11-20T06:23:10.212Z,97121.63
2022-11-20T06:25:57.138Z,97123.75
2022-11-20T06:28:44.428Z,97122.66
2022-11-20T06:31:33.815Z,97125.16
2022-11-20T06:34:20.801Z,97117.06
2022-11-20T06:37:07.702Z,97131.25
2022-11-20T06:39:54.584Z,97140.94
2022-11-20T06:42:41.659Z,97144.94
2022-11-20T06:45:28.977Z,97137.09
2022-11-20T06:48:15.918Z,97149.31
2022-11-20T06:51:07.936Z,97143.53
2022-11-20T06:53:54.944Z,97150.25
2022-11-20T06:56:42.056Z,97148.22
2022-11-20T06:59:29.021Z,97155.41
2022-11-20T07:02:15.954Z,97153.97
2022-11-20T07:05:03.192Z,97160.75
2022-11-20T07:07:50.148Z,97156.38
2022-11-20T07:10:37.168Z,97163.50
2022-11-20T07:13:24.379Z,97152.72
2022-11-20T07:16:11.507Z,97161.53
2022-11-20T07:18:58.734Z,97161.81
2022-11-20T07:21:45.642Z,97173.56
2022-11-20T07:24:32.577Z,97169.13
2022-11-20T07:27:19.701Z,97175.25
2022-11-20T07:30:07.868Z,97161.19
2022-11-20T07:32:56.452Z,97170.81
2022-11-20T07:35:43.424Z,97166.50
2022-11-20T07:38:30.864Z,97169.69
2022-11-20T07:41:17.945Z,97167.97
2022-11-20T07:44:04.968Z,97166.13
2022-11-20T07:46:51.851Z,97165.84
2022-11-20T07:49:44.897Z,97168.84
2022-11-20T07:52:31.808Z,97166.28
2022-11-20T07:55:18.680Z,97169.13
2022-11-20T07:58:05.592Z,97169.69
2022-11-20T08:00:52.723Z,97163.50
2022-11-20T08:03:39.768Z,97176.38
2022-11-20T08:06:27.653Z,97172.66
2022-11-20T08:09:14.557Z,97167.09
2022-11-20T08:12:20.169Z,97167.22
2022-11-20T08:15:12.817Z,97167.66
2022-11-20T08:18:29.007Z,97169.56
2022-11-20T08:21:08.970Z,97172.22
2022-11-20T08:23:55.949Z,97166.97
2022-11-20T08:26:43.132Z,97169.88
2022-11-20T08:29:30.147Z,97173.41
2022-11-20T08:32:17.086Z,97166.16
2022-11-20T08:35:04.577Z,97169.63
2022-11-20T08:37:51.733Z,97171.66
2022-11-20T08:40:38.671Z,97167.72
2022-11-20T08:43:25.636Z,97175.31
2022-11-20T08:46:13.031Z,97176.47
2022-11-20T08:49:00.292Z,97178.44
2022-11-20T08:51:49.351Z,97187.91
2022-11-20T08:54:36.288Z,97179.38
2022-11-20T08:57:23.255Z,97180.22
2022-11-20T09:00:12.281Z,97178.34
2022-11-20T09:03:00.450Z,97183.53
2022-11-20T09:05:47.368Z,97180.03
2022-11-20T09:08:36.370Z,97175.13
2022-11-20T09:11:23.579Z,97176.56
2022-11-20T09:14:10.568Z,97173.25
2022-11-20T09:16:57.807Z,97171.16
2022-11-20T09:19:45.089Z,97179.78
2022-11-20T09:22:32.419Z,97174.59
2022-11-20T09:25:19.361Z,97173.44
2022-11-20T09:28:06.369Z,97176.03
2022-11-20T09:30:53.282Z,97175.44
2022-11-20T09:33:40.184Z,97172.31
2022-11-20T09:36:27.369Z,97173.66
2022-11-20T09:39:14.313Z,97174.28
2022-11-20T09:42:27.499Z,97173.75
2022-11-20T09:45:39.143Z,97177.94
2022-11-20T09:49:12.707Z,97181.25
2022-11-20T09:52:37.720Z,97173.38
2022-11-20T09:55:25.449Z,97164.75
2022-11-20T09:58:51.889Z,97163.06
2022-11-20T10:01:41.863Z,97160.84
2022-11-20T10:04:35.547Z,97154.09
2022-11-20T10:07:32.692Z,97156.59
2022-11-20T10:10:41.026Z,97161.66
2022-11-20T10:13:47.088Z,97146.59
2022-11-20T10:16:52.866Z,97143.81
2022-11-20T10:19:48.866Z,97152.03
2022-11-20T10:22:53.109Z,97147.47
2022-11-20T10:25:43.900Z,97145.28
2022-11-20T10:29:21.093Z,97143.44
2022-11-20T10:32:15.868Z,97139.47
2022-11-20T10:35:35.246Z,97125.31
2022-11-20T10:38:27.104Z,97122.91
2022-11-20T10:41:27.183Z,97119.66
2022-11-20T10:44:47.160Z,97112.41
2022-11-20T10:47:34.548Z,97114.16
2022-11-20T10:50:23.719Z,97108.69
2022-11-20T10:53:52.136Z,97113.63
2022-11-20T10:56:51.756Z,97106.03
2022-11-20T11:00:02.781Z,97107.41
2022-11-20T11:02:52.227Z,97101.56
2022-11-20T11:05:45.485Z,97096.56
2022-11-20T11:08:38.637Z,97096.06
2022-11-20T11:11:29.669Z,97085.47
2022-11-20T11:14:17.454Z,97089.81
2022-11-20T11:17:04.397Z,97078.38
2022-11-20T11:20:18.245Z,97090.56
2022-11-20T11:23:05.616Z,97092.03
2022-11-20T11:25:59.694Z,97093.47
2022-11-20T11:29:00.326Z,97094.31
2022-11-20T11:31:47.317Z,97085.41
2022-11-20T11:34:34.354Z,97086.09
2022-11-20T11:37:25.103Z,97085.72
2022-11-20T11:40:28.301Z,97070.31
2022-11-20T11:43:40.263Z,97066.69
2022-11-20T11:46:37.756Z,97073.63
2022-11-20T11:49:25.240Z,97063.81
2022-11-20T11:52:23.626Z,97070.16
2022-11-20T11:55:24.707Z,97074.50
2022-11-20T11:58:42.290Z,97073.28
2022-11-20T12:01:57.454Z,97060.72
2022-11-20T12:04:56.121Z,97058.34
2022-11-20T12:07:47.768Z,97059.41
2022-11-20T12:10:50.039Z,97063.41
2022-11-20T12:14:05.569Z,97061.41
2022-11-20T12:16:54.224Z,97059.97
2022-11-20T12:19:41.983Z,97062.47
2022-11-20T12:23:23.827Z,97058.31
2022-11-20T12:26:50.494Z,97052.09
2022-11-20T12:30:17.959Z,97048.28
2022-11-20T12:33:27.177Z,97051.09
2022-11-20T12:36:42.059Z,97057.81
2022-11-20T12:39:37.349Z,97052.44
2022-11-20T12:42:55.983Z,97055.84
2022-11-20T12:46:08.801Z,97046.50
2022-11-20T12:49:18.051Z,97048.00
2022-11-20T12:52:37.041Z,97039.66
2022-11-20T12:55:41.876Z,97046.03
2022-11-20T12:58:56.489Z,97045.31
2022-11-20T13:01:52.240Z,97038.41
2022-11-20T13:05:40.929Z,97039.34
2022-11-20T13:08:35.928Z,97043.16
2022-11-20T13:11:41.530Z,97038.44
2022-11-20T13:14:38.822Z,97036.78
2022-11-20T13:17:37.966Z,97036.66
2022-11-20T13:20:25.463Z,97033.75
2022-11-20T13:23:12.666Z,97020.19
2022-11-20T13:26:14.682Z,97026.19
2022-11-20T13:29:20.244Z,97024.72
2022-11-20T13:32:19.195Z,97015.69
2022-11-20T13:35:06.604Z,97011.38
2022-11-20T13:38:04.490Z,97011.72
2022-11-20T13:40:59.748Z,97006.09
2022-11-20T13:43:49.124Z,97007.38
2022-11-20T13:46:45.627Z,97003.97
2022-11-20T13:49:45.811Z,96999.63
2022-11-20T13:52:56.377Z,96999.44
2022-11-20T13:56:32.523Z,96992.59
2022-11-20T13:59:57.611Z,96997.84
2022-11-20T14:02:50.104Z,96998.94
2022-11-20T14:05:52.257Z,97006.56
2022-11-20T14:08:44.236Z,97003.53
2022-11-20T14:11:32.236Z,96992.84
2022-11-20T14:14:22.188Z,96998.44
2022-11-20T14:17:19.322Z,97006.06
2022-11-20T14:20:12.800Z,97005.69
2022-11-20T14:22:59.953Z,97003.88
2022-11-20T14:25:47.051Z,97004.94
2022-11-20T14:28:34.131Z,97009.28
2022-11-20T14:31:26.127Z,97004.06
2022-11-20T14:34:28.843Z,96998.06
2022-11-20T14:37:22.769Z,96991.94
2022-11-20T14:40:27.927Z,96992.81
2022-11-20T14:43:29.057Z,96988.28
2022-11-20T14:46:16.513Z,96982.50
2022-11-20T14:49:05.154Z,96986.31
2022-11-20T14:52:14.085Z,96981.44
2022-11-20T14:55:01.004Z,96982.88
2022-11-20T14:57:56.252Z,96986.50
2022-11-20T15:00:53.837Z,96985.59
2022-11-20T15:03:42.138Z,96985.78
2022-11-20T15:06:29.395Z,96981.44
2022-11-20T15:09:16.996Z,96987.03
2022-11-20T15:12:04.872Z,96986.66
2022-11-20T15:14:51.814Z,96987.94
2022-11-20T15:17:41.814Z,96990.47
2022-11-20T15:20:34.123Z,96986.31
2022-11-20T15:23:21.150Z,96991.88
2022-11-20T15:26:09.712Z,96981.59
2022-11-20T15:28:56.686Z,96979.22
2022-11-20T15:31:45.741Z,96979.22
2022-11-20T15:34:32.893Z,96978.88
2022-11-20T15:37:19.800Z,96972.16
2022-11-20T15:40:08.002Z,96980.28
2022-11-20T15:43:06.976Z,96981.38
2022-11-20T15:46:02.339Z,96977.59
2022-11-20T16:06:03.290Z,97011.56
2022-11-20T16:08:50.241Z,97014.81
2022-11-20T16:11:38.388Z,97020.50
2022-11-20T16:14:43.752Z,97020.84
2022-11-20T16:17:43.440Z,97026.06
2022-11-20T16:20:30.437Z,97022.13
2022-11-20T16:23:17.798Z,97016.50
2022-11-20T16:26:14.802Z,97011.44
2022-11-20T16:29:03.559Z,97002.38
2022-11-20T16:31:50.514Z,97016.34
2022-11-20T16:34:37.407Z,97013.25
2022-11-20T16:37:24.310Z,97018.50
2022-11-20T16:40:12.276Z,97017.06
2022-11-20T16:43:08.570Z,97014.16
2022-11-20T16:45:55.489Z,97016.50
2022-11-20T16:48:42.402Z,97022.84
2022-11-20T16:51:31.493Z,97032.06
2022-11-20T16:54:21.265Z,97028.28
2022-11-20T16:57:08.466Z,97027.19
2022-11-20T17:00:00.327Z,97027.72
2022-11-20T17:02:49.333Z,97023.94
2022-11-20T17:05:36.310Z,97029.19
2022-11-20T17:08:23.216Z,97021.22
2022-11-20T17:11:13.691Z,97023.91
2022-11-20T17:14:01.124Z,97020.66
2022-11-20T17:16:47.982Z,97025.69
2022-11-20T17:19:34.887Z,97036.38
2022-11-20T17:22:21.753Z,97027.31
2022-11-20T17:25:08.978Z,97025.31
2022-11-20T17:27:55.893Z,97024.25
2022-11-20T17:30:42.806Z,97019.53
2022-11-20T17:33:30.337Z,97014.84
2022-11-20T17:36:20.034Z,97016.47
2022-11-20T17:39:07.047Z,97022.25
2022-11-20T17:42:12.230Z,97018.47
2022-11-20T17:44:59.058Z,97015.78
2022-11-20T17:47:46.638Z,97015.59
2022-11-20T17:50:33.492Z,97010.13
2022-11-20T17:53:21.288Z,97017.34
2022-11-20T17:56:26.964Z,97011.56
2022-11-20T17:59:13.942Z,97009.25
2022-11-20T18:02:03.670Z,97011.06
2022-11-20T18:04:51.168Z,97013.78
2022-11-20T18:07:41.921Z,97004.38
2022-11-20T18:10:32.162Z,97016.28
2022-11-20T18:13:18.954Z,97013.06
2022-11-20T18:16:07.640Z,97020.06
2022-11-20T18:18:58.242Z,97022.59
2022-11-20T18:21:45.437Z,97025.69
2022-11-20T18:24:32.975Z,97015.06
2022-11-20T18:27:20.998Z,97015.03
2022-11-20T18:30:08.616Z,97011.75
2022-11-20T18:32:56.083Z,97010.50
2022-11-20T18:35:43.239Z,97007.41
2022-11-20T18:38:30.165Z,97004.53
2022-11-20T18:41:38.249Z,97008.47
2022-11-20T18:44:48.829Z,97012.09
2022-11-20T18:47:39.099Z,97012.63
2022-11-20T18:50:26.007Z,97011.03
2022-11-20T18:53:12.900Z,97013.16
2022-11-20T18:56:04.498Z,97011.53
2022-11-20T18:58:51.482Z,97023.09
2022-11-20T19:01:38.496Z,97012.59
2022-11-20T19:04:25.797Z,96996.72
2022-11-20T19:07:13.612Z,96996.53
2022-11-20T19:10:03.732Z,96988.22
2022-11-20T19:12:51.282Z,96990.41
2022-11-20T19:15:38.300Z,96994.56
2022-11-20T19:18:25.336Z,96987.50
2022-11-20T19:21:15.929Z,96989.69
2022-11-20T19:24:04.145Z,96982.84
2022-11-20T19:26:51.134Z,96987.34
2022-11-20T19:29:38.433Z,96987.16
2022-11-20T19:32:25.599Z,96983.56
2022-11-20T19:35:13.351Z,96979.22
2022-11-20T19:38:05.293Z,96979.38
2022-11-20T19:40:52.755Z,96979.38
2022-11-20T19:43:39.825Z,96976.50
2022-11-20T19:46:28.361Z,96969.44
2022-11-20T19:49:15.432Z,96976.63
2022-11-20T19:52:02.402Z,96971.38
2022-11-20T19:54:49.501Z,96967.03
2022-11-20T19:57:36.482Z,96966.63
2022-11-20T20:00:29.613Z,96963.03
2022-11-20T20:03:19.703Z,96957.41
2022-11-20T20:06:13.548Z,96953.78
2022-11-20T20:09:04.430Z,96950.16
2022-11-20T20:11:51.320Z,96951.41
2022-11-20T20:14:38.207Z,96948.34
2022-11-20T20:17:25.152Z,96956.09
2022-11-20T20:20:12.045Z,96950.28
2022-11-20T20:22:58.867Z,96939.66
2022-11-20T20:25:48.131Z,96937.47
2022-11-20T20:28:36.579Z,96937.47
2022-11-20T20:31:26.055Z,96937.66
2022-11-20T20:34:13.034Z,96937.66
2022-11-20T20:36:59.961Z,96940.91
2022-11-20T20:39:46.991Z,96937.47
2022-11-20T20:42:33.904Z,96936.59
2022-11-20T20:45:20.898Z,96943.81
2022-11-20T20:48:07.826Z,96938.97
2022-11-20T20:50:56.432Z,96926.63
2022-11-20T20:53:43.468Z,96929.91
2022-11-20T20:56:30.464Z,96913.50
2022-11-20T20:59:17.339Z,96914.03
2022-11-20T21:02:04.459Z,96912.25
2022-11-20T21:04:52.316Z,96909.31
2022-11-20T21:07:59.107Z,96909.09
2022-11-20T21:10:46.189Z,96917.06
2022-11-20T21:13:35.016Z,96917.78
2022-11-20T21:16:25.296Z,96915.25
2022-11-20T21:19:12.409Z,96912.22
2022-11-20T21:21:59.447Z,96908.63
2022-11-20T21:24:46.440Z,96908.44
2022-11-20T21:27:33.358Z,96901.78
2022-11-20T21:30:20.218Z,96897.94
2022-11-20T21:33:07.239Z,96902.81
2022-11-20T21:35:54.338Z,96895.19
2022-11-20T21:38:41.645Z,96890.13
2022-11-20T21:41:32.715Z,96891.00
2022-11-20T21:44:35.077Z,96893.72
2022-11-20T21:47:22.128Z,96886.66
2022-11-20T21:50:09.697Z,96889.31
2022-11-20T21:52:56.573Z,96887.88
2022-11-20T21:55:43.672Z,96884.44
2022-11-20T21:58:31.435Z,96886.97
2022-11-20T22:01:20.660Z,96880.34
2022-11-20T22:04:08.142Z,96884.91
2022-11-20T22:06:55.222Z,96880.94
2022-11-20T22:09:42.138Z,96879.16
2022-11-20T22:12:29.012Z,96882.91
2022-11-20T22:15:27.944Z,96891.03
2022-11-20T22:18:22.848Z,96876.78
2022-11-20T22:21:10.201Z,96872.09
2022-11-20T22:23:57.462Z,96878.53
2022-11-20T22:26:44.483Z,96865.53
2022-11-20T22:29:31.754Z,96863.00
2022-11-20T22:32:18.820Z,96867.31
2022-11-20T22:35:05.972Z,96858.63
2022-11-20T22:37:52.858Z,96864.22
2022-11-20T22:40:40.057Z,96867.25
2022-11-20T22:43:27.116Z,96863.97
2022-11-20T22:46:16.914Z,96869.19
2022-11-20T22:49:06.825Z,96860.31
2022-11-20T22:51:53.917Z,96858.16
2022-11-20T22:54:41.036Z,96861.75
2022-11-20T22:57:27.936Z,96865.00
2022-11-20T23:00:15.584Z,96856.34
2022-11-20T23:03:02.708Z,96851.50
2022-11-20T23:05:49.828Z,96852.94
2022-11-20T23:08:38.459Z,96851.72
2022-11-20T23:11:27.976Z,96848.09
2022-11-20T23:14:16.039Z,96850.25
2022-11-20T23:17:03.128Z,96850.25
2022-11-20T23:19:50.023Z,96843.59
2022-11-20T23:22:36.922Z,96846.31
2022-11-20T23:25:24.023Z,96841.97
2022-11-20T23:28:11.157Z,96842.16
2022-11-20T23:30:58.608Z,96847.03
2022-11-20T23:33:46.352Z,96848.47
2022-11-20T23:36:33.481Z,96853.72
2022-11-20T23:39:20.574Z,96849.03
2022-11-20T23:42:07.488Z,96846.84
2022-11-20T23:44:54.386Z,96843.78
2022-11-20T23:47:41.503Z,96847.41
2022-11-20T23:50:28.595Z,96838.00
2022-11-20T23:53:16.517Z,96837.28
2022-11-20T23:56:05.206Z,96839.09
2022-11-20T23:58:52.332Z,96823.78
